createdAt,value
2019-02-20T00:02:02.602Z,64.70
2019-02-20T00:04:31.392Z,64.60
2019-02-20T00:09:54.816Z,64.60
2019-02-20T00:12:26.883Z,64.50
2019-02-20T00:15:06.037Z,64.50
2019-02-20T00:17:37.908Z,64.80
2019-02-20T00:20:10.505Z,64.60
2019-02-20T00:22:40.410Z,64.50
2019-02-20T00:25:33.815Z,64.60
2019-02-20T00:27:59.363Z,64.40
2019-02-20T00:30:28.867Z,64.30
2019-02-20T00:32:58.008Z,64.30
2019-02-20T00:35:27.677Z,64.40
2019-02-20T00:38:16.273Z,64.40
2019-02-20T00:40:55.403Z,64.50
2019-02-20T00:43:27.550Z,64.60
2019-02-20T00:46:25.789Z,64.80
2019-02-20T00:49:13.468Z,64.90
2019-02-20T00:51:54.716Z,64.80
2019-02-20T00:54:25.775Z,64.70
2019-02-20T00:57:03.048Z,64.50
2019-02-20T00:59:44.994Z,64.50
2019-02-20T01:02:19.006Z,64.70
2019-02-20T01:04:49.714Z,64.60
2019-02-20T01:07:18.902Z,64.70
2019-02-20T01:09:47.242Z,64.60
2019-02-20T01:12:18.849Z,64.70
2019-02-20T01:14:47.853Z,64.30
2019-02-20T01:17:17.115Z,64.50
2019-02-20T01:19:45.202Z,64.40
2019-02-20T01:22:22.287Z,64.70
2019-02-20T01:24:51.053Z,64.90
2019-02-20T01:27:25.211Z,64.80
2019-02-20T01:32:39.345Z,64.80
2019-02-20T01:35:15.527Z,64.70
2019-02-20T01:37:45.135Z,64.50
2019-02-20T01:40:15.179Z,64.40
2019-02-20T01:42:43.825Z,64.70
2019-02-20T01:45:12.642Z,64.80
2019-02-20T01:47:41.303Z,64.90
2019-02-20T01:50:09.474Z,65.30
2019-02-20T01:52:37.842Z,65.20
2019-02-20T01:57:41.667Z,65.20
2019-02-20T02:00:11.975Z,65.00
2019-02-20T02:02:53.514Z,65.20
2019-02-20T02:05:21.872Z,65.30
2019-02-20T02:08:10.190Z,65.70
2019-02-20T02:10:38.628Z,65.50
2019-02-20T02:13:06.804Z,65.80
2019-02-20T02:15:35.242Z,66.10
2019-02-20T02:18:18.978Z,66.70
2019-02-20T02:20:48.995Z,66.60
2019-02-20T02:23:20.071Z,66.40
2019-02-20T02:25:49.383Z,66.30
2019-02-20T02:28:17.358Z,66.30
2019-02-20T02:30:48.376Z,66.50
2019-02-20T02:33:16.499Z,66.50
2019-02-20T02:35:45.664Z,66.40
2019-02-20T02:38:13.793Z,66.20
2019-02-20T02:40:43.703Z,66.40
2019-02-20T02:43:13.923Z,66.40
2019-02-20T02:45:42.525Z,66.30
2019-02-20T02:48:23.701Z,66.50
2019-02-20T02:53:30.931Z,67.30
2019-02-20T02:58:34.008Z,67.10
2019-02-20T03:03:40.112Z,66.80
2019-02-20T03:06:08.073Z,66.80
2019-02-20T03:11:17.333Z,67.10
2019-02-20T03:13:45.556Z,67.00
2019-02-20T03:16:13.693Z,67.10
2019-02-20T03:19:08.297Z,66.90
2019-02-20T03:21:37.619Z,66.90
2019-02-20T03:24:06.657Z,66.90
2019-02-20T03:26:34.792Z,66.80
2019-02-20T03:29:02.911Z,67.00
2019-02-20T03:31:31.999Z,66.90
2019-02-20T03:34:00.852Z,66.90
2019-02-20T03:36:28.841Z,66.50
2019-02-20T03:38:57.503Z,66.40
2019-02-20T03:41:27.969Z,66.10
2019-02-20T03:43:59.197Z,65.90
2019-02-20T03:46:27.826Z,66.00
2019-02-20T03:48:56.452Z,66.30
2019-02-20T03:51:25.892Z,66.10
2019-02-20T03:53:57.136Z,66.20
2019-02-20T03:56:25.554Z,66.20
2019-02-20T03:58:54.818Z,66.50
2019-02-20T04:01:22.705Z,66.80
2019-02-20T04:03:50.689Z,66.80
2019-02-20T04:06:25.454Z,66.80
2019-02-20T04:08:56.103Z,66.90
2019-02-20T04:11:24.261Z,67.00
2019-02-20T04:14:01.103Z,67.20
2019-02-20T04:16:31.961Z,67.10
2019-02-20T04:19:00.113Z,67.10
2019-02-20T04:21:29.212Z,66.80
2019-02-20T04:24:03.371Z,66.70
2019-02-20T04:26:36.973Z,66.30
2019-02-20T04:29:06.928Z,66.10
2019-02-20T04:31:46.019Z,66.20
2019-02-20T04:34:20.190Z,66.00
2019-02-20T04:36:52.680Z,66.00
2019-02-20T04:39:26.963Z,66.10
2019-02-20T04:41:55.120Z,65.90
2019-02-20T04:44:23.242Z,65.90
2019-02-20T04:46:51.185Z,65.70
2019-02-20T04:49:21.100Z,65.60
2019-02-20T04:51:54.449Z,65.50
2019-02-20T04:54:22.411Z,65.80
2019-02-20T04:56:50.900Z,65.50
2019-02-20T04:59:19.689Z,65.40
2019-02-20T05:01:50.296Z,65.50
2019-02-20T05:04:18.710Z,65.60
2019-02-20T05:06:46.960Z,65.60
2019-02-20T05:09:15.138Z,65.70
2019-02-20T05:11:43.321Z,65.70
2019-02-20T05:14:32.075Z,65.30
2019-02-20T05:17:02.213Z,65.60
2019-02-20T05:19:30.881Z,65.50
2019-02-20T05:21:58.914Z,65.40
2019-02-20T05:24:27.286Z,65.70
2019-02-20T05:26:58.718Z,65.80
2019-02-20T05:29:26.776Z,65.70
2019-02-20T05:31:54.773Z,65.70
2019-02-20T05:34:23.664Z,65.80
2019-02-20T05:36:51.603Z,65.70
2019-02-20T05:39:19.326Z,65.70
2019-02-20T05:41:47.168Z,65.90
2019-02-20T05:44:14.995Z,65.70
2019-02-20T05:46:43.097Z,65.70
2019-02-20T05:49:11.040Z,65.80
2019-02-20T05:51:39.547Z,66.00
2019-02-20T05:54:07.734Z,66.00
2019-02-20T05:56:35.593Z,65.80
2019-02-20T05:59:04.060Z,65.40
2019-02-20T06:01:32.047Z,65.10
2019-02-20T06:03:59.869Z,64.70
2019-02-20T06:06:28.217Z,65.10
2019-02-20T06:08:56.608Z,65.00
2019-02-20T06:11:24.285Z,64.80
2019-02-20T06:13:52.437Z,64.80
2019-02-20T06:16:20.262Z,64.80
2019-02-20T06:18:48.202Z,65.00
2019-02-20T06:21:21.089Z,65.10
2019-02-20T06:23:48.865Z,65.10
2019-02-20T06:26:16.693Z,64.90
2019-02-20T06:28:44.384Z,64.80
2019-02-20T06:31:12.189Z,64.50
2019-02-20T06:33:39.866Z,64.40
2019-02-20T06:36:07.668Z,64.30
2019-02-20T06:38:35.458Z,64.60
2019-02-20T06:41:03.191Z,64.50
2019-02-20T06:43:30.896Z,64.70
2019-02-20T06:45:58.484Z,64.50
2019-02-20T06:48:26.168Z,64.20
2019-02-20T06:50:53.930Z,64.00
2019-02-20T06:53:21.670Z,63.90
2019-02-20T06:55:49.502Z,64.20
2019-02-20T06:58:17.272Z,64.30
2019-02-20T07:00:45.298Z,64.30
2019-02-20T07:03:12.966Z,64.70
2019-02-20T07:05:43.015Z,64.70
2019-02-20T07:08:48.418Z,64.50
2019-02-20T07:12:01.122Z,64.20
2019-02-20T07:14:46.116Z,64.00
2019-02-20T07:17:47.567Z,63.70
2019-02-20T07:21:02.950Z,63.80
2019-02-20T07:24:13.383Z,63.60
2019-02-20T07:26:55.703Z,63.50
2019-02-20T07:30:01.430Z,63.50
2019-02-20T07:32:29.580Z,63.30
2019-02-20T07:34:57.337Z,63.10
2019-02-20T07:37:25.441Z,62.90
2019-02-20T07:39:53.323Z,62.80
2019-02-20T07:42:21.108Z,62.80
2019-02-20T07:44:48.710Z,62.80
2019-02-20T07:47:16.456Z,62.80
2019-02-20T07:49:44.147Z,62.70
2019-02-20T07:52:12.017Z,62.80
2019-02-20T07:54:39.716Z,62.70
2019-02-20T07:57:07.482Z,62.30
2019-02-20T07:59:35.152Z,62.10
2019-02-20T08:02:02.796Z,62.10
2019-02-20T08:04:30.540Z,62.00
2019-02-20T08:06:58.423Z,62.10
2019-02-20T08:09:26.158Z,62.20
2019-02-20T08:11:53.845Z,62.00
2019-02-20T08:14:21.903Z,62.00
2019-02-20T08:16:52.345Z,61.90
2019-02-20T08:19:19.170Z,61.80
2019-02-20T08:21:46.806Z,61.70
2019-02-20T08:24:15.021Z,61.90
2019-02-20T08:26:42.677Z,61.70
2019-02-20T08:29:10.565Z,61.60
2019-02-20T08:31:38.328Z,61.70
2019-02-20T08:34:06.032Z,61.10
2019-02-20T08:36:33.712Z,61.00
2019-02-20T08:39:01.388Z,61.00
2019-02-20T08:41:29.418Z,60.80
2019-02-20T08:43:57.611Z,61.00
2019-02-20T08:46:25.494Z,61.00
2019-02-20T08:48:53.406Z,60.90
2019-02-20T08:51:21.580Z,60.80
2019-02-20T08:53:49.593Z,61.10
2019-02-20T08:56:17.494Z,61.20
2019-02-20T08:58:48.827Z,61.00
2019-02-20T09:01:18.639Z,60.90
2019-02-20T09:03:47.010Z,60.60
2019-02-20T09:06:14.887Z,60.60
2019-02-20T09:08:42.623Z,60.60
2019-02-20T09:11:10.500Z,60.70
2019-02-20T09:13:38.191Z,60.10
2019-02-20T09:16:05.901Z,59.90
2019-02-20T09:18:33.510Z,60.10
2019-02-20T09:21:01.585Z,59.50
2019-02-20T09:23:29.372Z,59.20
2019-02-20T09:25:57.359Z,59.20
2019-02-20T09:28:25.092Z,58.90
2019-02-20T09:30:53.036Z,59.10
2019-02-20T09:33:20.696Z,58.80
2019-02-20T09:35:48.701Z,58.70
2019-02-20T09:38:16.550Z,58.40
2019-02-20T09:40:44.116Z,58.80
2019-02-20T09:43:12.158Z,58.30
2019-02-20T09:45:42.910Z,58.70
2019-02-20T09:48:13.548Z,58.90
2019-02-20T09:50:41.527Z,60.00
2019-02-20T09:53:12.301Z,60.70
2019-02-20T09:55:40.576Z,60.70
2019-02-20T09:58:13.542Z,60.90
2019-02-20T10:00:41.643Z,61.00
2019-02-20T10:03:09.614Z,60.70
2019-02-20T10:05:38.741Z,60.70
2019-02-20T10:08:07.018Z,60.80
2019-02-20T10:10:37.792Z,60.20
2019-02-20T10:13:05.659Z,60.50
2019-02-20T10:15:33.446Z,60.90
2019-02-20T10:18:01.319Z,60.80
2019-02-20T10:20:29.328Z,60.90
2019-02-20T10:23:02.456Z,60.90
2019-02-20T10:25:30.854Z,61.90
2019-02-20T10:27:58.874Z,62.30
2019-02-20T10:30:27.988Z,63.20
2019-02-20T10:32:57.600Z,63.40
2019-02-20T10:35:32.053Z,64.00
2019-02-20T10:38:02.903Z,64.40
2019-02-20T10:40:31.429Z,64.60
2019-02-20T10:43:00.036Z,65.50
2019-02-20T10:45:28.084Z,65.80
2019-02-20T10:47:56.692Z,66.20
2019-02-20T10:50:25.388Z,65.90
2019-02-20T10:52:53.170Z,65.80
2019-02-20T10:55:21.825Z,64.30
2019-02-20T10:57:50.011Z,64.10
2019-02-20T11:00:25.945Z,62.40
2019-02-20T11:02:55.281Z,61.70
2019-02-20T11:05:23.279Z,62.10
2019-02-20T11:07:51.388Z,62.20
2019-02-20T11:10:19.281Z,62.30
2019-02-20T11:12:47.317Z,62.20
2019-02-20T11:15:17.188Z,62.00
2019-02-20T11:17:45.633Z,61.80
2019-02-20T11:20:15.921Z,61.80
2019-02-20T11:22:45.541Z,61.50
2019-02-20T11:25:13.955Z,62.00
2019-02-20T11:27:42.891Z,61.60
2019-02-20T11:30:18.586Z,61.80
2019-02-20T11:32:46.725Z,61.60
2019-02-20T11:35:16.928Z,61.40
2019-02-20T11:37:49.070Z,60.70
2019-02-20T11:40:24.143Z,60.70
2019-02-20T11:42:52.852Z,60.60
2019-02-20T11:45:23.142Z,60.40
2019-02-20T11:47:52.925Z,60.30
2019-02-20T11:50:20.948Z,59.80
2019-02-20T11:52:58.260Z,60.00
2019-02-20T11:55:30.124Z,59.70
2019-02-20T11:58:00.635Z,60.20
2019-02-20T12:00:28.461Z,60.00
2019-02-20T12:02:57.322Z,59.90
2019-02-20T12:05:25.346Z,59.20
2019-02-20T12:07:53.924Z,58.90
2019-02-20T12:10:22.452Z,58.70
2019-02-20T12:12:51.227Z,58.50
2019-02-20T12:15:19.843Z,57.70
2019-02-20T12:17:48.361Z,57.90
2019-02-20T12:20:16.886Z,56.80
2019-02-20T12:22:45.614Z,57.40
2019-02-20T12:25:23.783Z,56.80
2019-02-20T12:28:06.582Z,56.70
2019-02-20T12:30:34.056Z,56.20
2019-02-20T12:33:04.628Z,56.70
2019-02-20T12:35:35.264Z,56.30
2019-02-20T12:38:03.265Z,55.80
2019-02-20T12:40:32.039Z,55.50
2019-02-20T12:43:00.845Z,55.30
2019-02-20T12:45:49.278Z,55.00
2019-02-20T12:48:25.906Z,55.10
2019-02-20T12:50:54.666Z,54.60
2019-02-20T12:53:23.474Z,54.30
2019-02-20T12:55:52.712Z,54.20
2019-02-20T13:00:55.666Z,54.80
2019-02-20T13:03:24.529Z,54.50
2019-02-20T13:05:53.056Z,54.20
2019-02-20T13:08:22.610Z,54.40
2019-02-20T13:10:58.446Z,54.50
2019-02-20T13:13:26.452Z,54.20
2019-02-20T13:15:57.078Z,54.30
2019-02-20T13:18:26.697Z,54.20
2019-02-20T13:23:27.185Z,54.20
2019-02-20T13:26:00.938Z,53.80
2019-02-20T13:28:33.020Z,53.10
2019-02-20T13:31:03.264Z,53.40
2019-02-20T13:33:47.322Z,52.90
2019-02-20T13:36:18.652Z,53.20
2019-02-20T13:38:46.551Z,53.40
2019-02-20T13:41:14.492Z,53.70
2019-02-20T13:43:42.265Z,53.70
2019-02-20T13:46:10.013Z,54.00
2019-02-20T13:48:40.115Z,53.80
2019-02-20T13:51:08.803Z,53.90
2019-02-20T13:53:36.539Z,54.00
2019-02-20T13:56:05.844Z,54.50
2019-02-20T13:58:37.204Z,55.00
2019-02-20T14:01:07.730Z,54.50
2019-02-20T14:03:35.455Z,54.30
2019-02-20T14:06:03.244Z,54.30
2019-02-20T14:08:31.026Z,53.90
2019-02-20T14:10:58.895Z,53.30
2019-02-20T14:13:27.230Z,53.50
2019-02-20T14:15:55.201Z,53.40
2019-02-20T14:18:22.996Z,53.90
2019-02-20T14:20:50.955Z,54.00
2019-02-20T14:23:20.001Z,54.00
2019-02-20T14:25:47.846Z,54.30
2019-02-20T14:28:15.708Z,54.00
2019-02-20T14:30:43.827Z,54.50
2019-02-20T14:33:11.491Z,54.10
2019-02-20T14:35:39.341Z,54.00
2019-02-20T14:38:07.297Z,54.10
2019-02-20T14:40:35.003Z,55.20
2019-02-20T14:43:02.916Z,55.70
2019-02-20T14:45:30.748Z,56.30
2019-02-20T14:47:58.872Z,56.40
2019-02-20T14:50:27.330Z,56.20
2019-02-20T14:52:55.118Z,56.20
2019-02-20T14:55:23.257Z,56.70
2019-02-20T14:57:55.125Z,56.70
2019-02-20T15:00:23.553Z,56.10
2019-02-20T15:02:52.961Z,56.10
2019-02-20T15:05:40.256Z,56.50
2019-02-20T15:08:12.077Z,56.00
2019-02-20T15:10:44.936Z,56.10
2019-02-20T15:14:16.085Z,56.00
2019-02-20T15:16:53.949Z,56.00
2019-02-20T15:27:42.449Z,54.70
2019-02-20T15:33:21.000Z,54.80
2019-02-20T15:35:55.270Z,54.90
2019-02-20T15:38:42.301Z,55.50
2019-02-20T15:41:14.105Z,55.70
2019-02-20T15:43:44.365Z,55.90
2019-02-20T15:46:42.885Z,56.20
2019-02-20T15:49:20.729Z,56.30
2019-02-20T15:52:47.492Z,56.30
2019-02-20T15:55:28.850Z,56.40
2019-02-20T15:58:56.341Z,56.30
2019-02-20T16:06:12.239Z,56.30
2019-02-20T16:11:59.081Z,56.40
2019-02-20T16:14:35.096Z,56.70
2019-02-20T16:17:11.805Z,55.80
2019-02-20T16:20:24.353Z,55.60
2019-02-20T16:22:54.614Z,55.50
2019-02-20T16:25:34.965Z,55.70
2019-02-20T16:28:05.024Z,55.40
2019-02-20T16:30:37.917Z,55.10
2019-02-20T16:36:21.992Z,54.80
2019-02-20T16:38:51.587Z,54.70
2019-02-20T16:41:39.998Z,54.80
2019-02-20T16:44:27.780Z,55.10
2019-02-20T16:49:48.261Z,55.40
2019-02-20T16:52:37.416Z,54.90
2019-02-20T16:56:09.689Z,55.00
2019-02-20T16:58:46.451Z,54.90
2019-02-20T17:01:18.086Z,55.60
2019-02-20T17:03:48.318Z,55.10
2019-02-20T17:06:25.551Z,55.30
2019-02-20T17:08:53.738Z,55.40
2019-02-20T17:11:29.774Z,55.60
2019-02-20T17:14:10.512Z,55.80
2019-02-20T17:16:53.035Z,55.70
2019-02-20T17:19:30.155Z,55.80
2019-02-20T17:22:11.571Z,55.80
2019-02-20T17:24:49.301Z,55.80
2019-02-20T17:28:05.274Z,56.10
2019-02-20T17:30:29.272Z,56.10
2019-02-20T17:33:25.545Z,56.30
2019-02-20T17:42:36.215Z,55.90
2019-02-20T17:45:15.301Z,55.70
2019-02-20T17:48:23.380Z,55.70
2019-02-20T17:50:57.740Z,55.50
2019-02-20T17:54:01.614Z,55.00
2019-02-20T17:56:35.006Z,54.80
2019-02-20T17:59:19.330Z,55.10
2019-02-20T18:02:17.277Z,55.00
2019-02-20T18:05:05.061Z,55.20
2019-02-20T18:24:31.693Z,56.60
2019-02-20T18:27:21.217Z,56.60
2019-02-20T18:32:45.154Z,57.10
2019-02-20T18:35:37.363Z,57.10
2019-02-20T18:38:55.994Z,57.30
2019-02-20T18:41:54.977Z,57.50
2019-02-20T18:44:52.763Z,57.60
2019-02-20T18:47:51.790Z,57.60
2019-02-20T18:57:31.168Z,57.30
2019-02-20T19:00:07.516Z,57.10
2019-02-20T19:02:48.177Z,57.00
2019-02-20T19:05:59.873Z,56.70
2019-02-20T19:08:52.767Z,56.60
2019-02-20T19:12:12.384Z,56.80
2019-02-20T19:15:32.418Z,56.50
2019-02-20T19:19:10.416Z,56.50
2019-02-20T19:22:08.425Z,56.50
2019-02-20T19:25:41.862Z,55.60
2019-02-20T19:32:38.434Z,55.70
2019-02-20T19:35:49.047Z,55.90
2019-02-20T19:39:06.314Z,55.90
2019-02-20T19:42:10.548Z,55.90
2019-02-20T19:45:18.714Z,56.00
2019-02-20T19:48:20.368Z,56.20
2019-02-20T19:51:31.502Z,56.40
2019-02-20T19:58:22.219Z,56.50
2019-02-20T20:01:02.120Z,55.90
2019-02-20T20:04:15.165Z,55.80
2019-02-20T20:07:39.747Z,55.60
2019-02-20T20:14:33.197Z,55.10
2019-02-20T20:18:20.951Z,54.90
2019-02-20T20:21:51.563Z,55.00
2019-02-20T20:25:13.530Z,55.30
2019-02-20T20:28:14.051Z,55.30
2019-02-20T20:39:00.148Z,55.80
2019-02-20T20:56:16.084Z,55.70
2019-02-20T21:06:40.109Z,56.00
2019-02-20T21:09:42.264Z,55.60
2019-02-20T21:12:53.818Z,55.80
2019-02-20T21:15:57.878Z,55.70
2019-02-20T21:27:35.254Z,55.80
2019-02-20T21:31:30.617Z,56.20
2019-02-20T21:35:10.255Z,56.30
2019-02-20T21:39:13.732Z,56.60
2019-02-20T21:42:00.937Z,56.70
2019-02-20T21:45:20.154Z,57.00
2019-02-20T21:48:45.471Z,57.50
2019-02-20T21:52:13.929Z,57.40
2019-02-20T22:04:12.851Z,57.80
2019-02-20T22:23:24.684Z,58.50
2019-02-20T22:26:11.860Z,58.80
2019-02-20T22:29:50.096Z,58.20
2019-02-20T22:32:42.216Z,58.30
2019-02-20T22:35:58.866Z,58.20
2019-02-20T22:39:19.675Z,58.00
2019-02-20T22:42:48.635Z,57.90
2019-02-20T22:54:08.282Z,58.80
2019-02-20T22:57:31.689Z,59.20
2019-02-20T23:01:20.805Z,60.00
2019-02-20T23:08:14.934Z,60.20
2019-02-20T23:11:36.821Z,60.30
2019-02-20T23:15:05.383Z,60.50
2019-02-20T23:20:34.336Z,60.40
2019-02-20T23:23:18.470Z,60.50
2019-02-20T23:25:50.386Z,60.70
2019-02-20T23:28:21.587Z,60.80
2019-02-20T23:30:53.203Z,60.90
2019-02-20T23:33:24.723Z,61.00
2019-02-20T23:42:16.010Z,61.20
2019-02-20T23:47:37.292Z,61.30
2019-02-20T23:53:37.930Z,61.40
2019-02-20T23:56:58.006Z,61.60
